Brindle Town, North Carolina
Current Conditions -  °F | °C
As of 6:15 AM on Wednesday 26 Nov 2014 (Local Time) from KMRN Reporting Station
Moderate Rain Moderate Rain  
Wind Chill: 43°   Ceiling: 2100
Heat Index: 43°   Visibility: 7mi
Dew Point: 43°   Wind: 0mph
Humidity: 100%   Direction: NA
Pressure: 29.96"   Gusts: NA
Location:  35.7567°N, 81.7518°W
Report Text: KMRN 261115Z AUTO 00000KT 7SM RA SCT002 BKN021 OVC055 06/06 A2996 RMK AO2 P0001 T00600060
Loading
Personal Weather Stations






























Interactive Weather Map New forecast layout! Learn more

10-Day Weather Forecast

Advertisements
Track Severe Weather on mobile